< < Back
Terminal Aerodrome Forecast


Current Version              Previous Versions:   1  2  3  4  5  6  7  8  9  

Terminal Aerodrome Forecast

866
FTUS42 KCAE 311759 AAA
TAFAGS
TAF AMD
KAGS 311759Z 3118/0118 35007KT P6SM BKN025 BKN050
     FM312200 35006KT P6SM SCT025 BKN050
     FM010000 VRB03KT P6SM SCT050 BKN150
     FM010600 VRB03KT 3SM BR SCT250
      TEMPO 0110/0114 1 1/2SM BR
     FM011500 VRB04KT P6SM SCT250=

Latest METAR

580
SAUS70 KWBC 312000 RRC
MTRAGS
METAR KAGS 311953Z 36003KT 10SM BKN028 29/21 A3007 RMK AO2 SLP179
T02890206


USA.gov is the U.S. government's official web portal to all federal, state and local government web resources and services.